sensor_id;sensor_type;location;lat;lon;timestamp;P1;durP1;ratioP1;P2;durP2;ratioP2
3995;SDS011;2012;49.794;9.722;2023-05-23T00:00:57;13.00;;;10.93;;
3995;SDS011;2012;49.794;9.722;2023-05-23T00:03:25;11.33;;;10.13;;
3995;SDS011;2012;49.794;9.722;2023-05-23T00:05:54;13.97;;;10.43;;
3995;SDS011;2012;49.794;9.722;2023-05-23T00:08:22;17.13;;;10.00;;
3995;SDS011;2012;49.794;9.722;2023-05-23T00:10:48;18.03;;;9.90;;
3995;SDS011;2012;49.794;9.722;2023-05-23T00:13:15;12.80;;;10.27;;
3995;SDS011;2012;49.794;9.722;2023-05-23T00:15:43;13.20;;;9.90;;
3995;SDS011;2012;49.794;9.722;2023-05-23T00:18:10;13.57;;;10.57;;
3995;SDS011;2012;49.794;9.722;2023-05-23T00:20:37;12.20;;;11.00;;
3995;SDS011;2012;49.794;9.722;2023-05-23T00:23:09;12.30;;;10.43;;
3995;SDS011;2012;49.794;9.722;2023-05-23T00:25:36;14.07;;;10.00;;
3995;SDS011;2012;49.794;9.722;2023-05-23T00:28:03;15.23;;;9.70;;
3995;SDS011;2012;49.794;9.722;2023-05-23T00:30:32;13.30;;;10.37;;
3995;SDS011;2012;49.794;9.722;2023-05-23T00:32:59;15.23;;;11.30;;
3995;SDS011;2012;49.794;9.722;2023-05-23T00:35:26;13.90;;;10.50;;
3995;SDS011;2012;49.794;9.722;2023-05-23T00:37:53;11.27;;;10.07;;
3995;SDS011;2012;49.794;9.722;2023-05-23T00:40:21;12.13;;;10.40;;
3995;SDS011;2012;49.794;9.722;2023-05-23T00:42:48;12.77;;;10.60;;
3995;SDS011;2012;49.794;9.722;2023-05-23T00:45:15;15.83;;;10.40;;
3995;SDS011;2012;49.794;9.722;2023-05-23T00:47:43;12.07;;;10.80;;
3995;SDS011;2012;49.794;9.722;2023-05-23T00:50:12;16.70;;;11.80;;
3995;SDS011;2012;49.794;9.722;2023-05-23T00:52:41;13.57;;;11.70;;
3995;SDS011;2012;49.794;9.722;2023-05-23T00:55:09;16.03;;;11.20;;
3995;SDS011;2012;49.794;9.722;2023-05-23T00:57:37;14.73;;;11.63;;
3995;SDS011;2012;49.794;9.722;2023-05-23T01:00:13;13.93;;;11.80;;
3995;SDS011;2012;49.794;9.722;2023-05-23T01:02:45;16.37;;;11.87;;
3995;SDS011;2012;49.794;9.722;2023-05-23T01:05:14;14.23;;;12.43;;
3995;SDS011;2012;49.794;9.722;2023-05-23T01:07:43;19.00;;;13.27;;
3995;SDS011;2012;49.794;9.722;2023-05-23T01:10:15;16.63;;;13.10;;
3995;SDS011;2012;49.794;9.722;2023-05-23T01:15:34;13.73;;;12.30;;
3995;SDS011;2012;49.794;9.722;2023-05-23T01:18:09;17.13;;;13.03;;
3995;SDS011;2012;49.794;9.722;2023-05-23T01:20:50;18.10;;;12.77;;
3995;SDS011;2012;49.794;9.722;2023-05-23T01:23:34;16.10;;;13.00;;
3995;SDS011;2012;49.794;9.722;2023-05-23T01:26:32;14.23;;;11.30;;
3995;SDS011;2012;49.794;9.722;2023-05-23T01:29:21;16.80;;;14.23;;
3995;SDS011;2012;49.794;9.722;2023-05-23T01:31:52;19.43;;;12.37;;
3995;SDS011;2012;49.794;9.722;2023-05-23T01:34:20;17.43;;;12.43;;
3995;SDS011;2012;49.794;9.722;2023-05-23T01:36:54;16.73;;;13.80;;
3995;SDS011;2012;49.794;9.722;2023-05-23T01:39:21;24.57;;;14.43;;
3995;SDS011;2012;49.794;9.722;2023-05-23T01:41:48;18.27;;;14.90;;
3995;SDS011;2012;49.794;9.722;2023-05-23T01:44:17;23.30;;;17.80;;
3995;SDS011;2012;49.794;9.722;2023-05-23T01:46:46;20.50;;;16.50;;
3995;SDS011;2012;49.794;9.722;2023-05-23T01:49:13;26.33;;;19.20;;
3995;SDS011;2012;49.794;9.722;2023-05-23T01:51:42;24.53;;;16.10;;
3995;SDS011;2012;49.794;9.722;2023-05-23T01:54:10;22.33;;;16.40;;
3995;SDS011;2012;49.794;9.722;2023-05-23T01:56:38;19.00;;;14.63;;
3995;SDS011;2012;49.794;9.722;2023-05-23T01:59:06;20.03;;;15.30;;
3995;SDS011;2012;49.794;9.722;2023-05-23T02:01:33;29.03;;;19.93;;
3995;SDS011;2012;49.794;9.722;2023-05-23T02:04:00;22.80;;;16.63;;
3995;SDS011;2012;49.794;9.722;2023-05-23T02:06:29;21.00;;;17.60;;
3995;SDS011;2012;49.794;9.722;2023-05-23T02:08:57;29.00;;;18.23;;
3995;SDS011;2012;49.794;9.722;2023-05-23T02:11:23;27.30;;;19.97;;
3995;SDS011;2012;49.794;9.722;2023-05-23T02:13:52;25.20;;;18.33;;
3995;SDS011;2012;49.794;9.722;2023-05-23T02:16:19;29.53;;;17.60;;
3995;SDS011;2012;49.794;9.722;2023-05-23T02:18:47;26.13;;;19.60;;
3995;SDS011;2012;49.794;9.722;2023-05-23T02:21:14;29.43;;;21.00;;
3995;SDS011;2012;49.794;9.722;2023-05-23T02:23:41;24.47;;;20.37;;
3995;SDS011;2012;49.794;9.722;2023-05-23T02:26:08;30.40;;;20.60;;
3995;SDS011;2012;49.794;9.722;2023-05-23T02:28:35;26.93;;;20.63;;
3995;SDS011;2012;49.794;9.722;2023-05-23T02:31:02;32.63;;;21.80;;
3995;SDS011;2012;49.794;9.722;2023-05-23T02:33:29;29.47;;;20.90;;
3995;SDS011;2012;49.794;9.722;2023-05-23T02:35:57;33.53;;;22.80;;
3995;SDS011;2012;49.794;9.722;2023-05-23T02:38:23;28.50;;;22.20;;
3995;SDS011;2012;49.794;9.722;2023-05-23T02:40:52;29.40;;;22.47;;
3995;SDS011;2012;49.794;9.722;2023-05-23T02:43:19;35.87;;;23.77;;
3995;SDS011;2012;49.794;9.722;2023-05-23T02:45:46;30.40;;;21.00;;
3995;SDS011;2012;49.794;9.722;2023-05-23T02:48:13;29.33;;;23.57;;
3995;SDS011;2012;49.794;9.722;2023-05-23T02:50:43;29.67;;;21.60;;
3995;SDS011;2012;49.794;9.722;2023-05-23T02:53:10;36.50;;;24.57;;
3995;SDS011;2012;49.794;9.722;2023-05-23T02:55:37;31.03;;;23.10;;
3995;SDS011;2012;49.794;9.722;2023-05-23T02:58:04;31.23;;;23.23;;
3995;SDS011;2012;49.794;9.722;2023-05-23T03:00:32;32.97;;;22.57;;
3995;SDS011;2012;49.794;9.722;2023-05-23T03:02:59;28.13;;;21.33;;
3995;SDS011;2012;49.794;9.722;2023-05-23T03:05:27;32.97;;;21.20;;
3995;SDS011;2012;49.794;9.722;2023-05-23T03:07:54;27.07;;;20.73;;
3995;SDS011;2012;49.794;9.722;2023-05-23T03:10:21;27.77;;;20.13;;
3995;SDS011;2012;49.794;9.722;2023-05-23T03:12:48;29.37;;;20.43;;
3995;SDS011;2012;49.794;9.722;2023-05-23T03:15:15;26.47;;;18.73;;
3995;SDS011;2012;49.794;9.722;2023-05-23T03:17:43;27.40;;;19.33;;
3995;SDS011;2012;49.794;9.722;2023-05-23T03:20:10;26.50;;;19.90;;
3995;SDS011;2012;49.794;9.722;2023-05-23T03:22:37;22.13;;;17.90;;
3995;SDS011;2012;49.794;9.722;2023-05-23T03:25:04;22.13;;;17.60;;
3995;SDS011;2012;49.794;9.722;2023-05-23T03:27:32;20.57;;;16.00;;
3995;SDS011;2012;49.794;9.722;2023-05-23T03:29:59;23.13;;;17.97;;
3995;SDS011;2012;49.794;9.722;2023-05-23T03:32:26;23.50;;;16.50;;
3995;SDS011;2012;49.794;9.722;2023-05-23T03:34:53;30.40;;;18.17;;
3995;SDS011;2012;49.794;9.722;2023-05-23T03:37:20;19.93;;;15.80;;
3995;SDS011;2012;49.794;9.722;2023-05-23T03:39:47;18.53;;;15.80;;
3995;SDS011;2012;49.794;9.722;2023-05-23T03:42:14;25.17;;;15.93;;
3995;SDS011;2012;49.794;9.722;2023-05-23T03:44:41;22.50;;;16.00;;
3995;SDS011;2012;49.794;9.722;2023-05-23T03:47:09;24.83;;;17.13;;
3995;SDS011;2012;49.794;9.722;2023-05-23T03:49:39;21.77;;;16.90;;
3995;SDS011;2012;49.794;9.722;2023-05-23T03:52:06;21.73;;;16.27;;
3995;SDS011;2012;49.794;9.722;2023-05-23T03:54:34;19.67;;;16.07;;
3995;SDS011;2012;49.794;9.722;2023-05-23T03:57:02;19.60;;;16.47;;
3995;SDS011;2012;49.794;9.722;2023-05-23T03:59:29;21.03;;;16.67;;
3995;SDS011;2012;49.794;9.722;2023-05-23T04:01:56;19.70;;;14.97;;
3995;SDS011;2012;49.794;9.722;2023-05-23T04:04:24;23.00;;;17.40;;
3995;SDS011;2012;49.794;9.722;2023-05-23T04:06:52;23.10;;;16.80;;
3995;SDS011;2012;49.794;9.722;2023-05-23T04:09:19;22.13;;;15.50;;
3995;SDS011;2012;49.794;9.722;2023-05-23T04:11:48;24.80;;;16.43;;
3995;SDS011;2012;49.794;9.722;2023-05-23T04:14:17;22.23;;;15.90;;
3995;SDS011;2012;49.794;9.722;2023-05-23T04:16:45;21.10;;;16.20;;
3995;SDS011;2012;49.794;9.722;2023-05-23T04:19:13;22.67;;;16.40;;
3995;SDS011;2012;49.794;9.722;2023-05-23T04:21:41;19.70;;;15.30;;
3995;SDS011;2012;49.794;9.722;2023-05-23T04:24:12;23.93;;;16.97;;
3995;SDS011;2012;49.794;9.722;2023-05-23T04:26:38;28.93;;;16.80;;
3995;SDS011;2012;49.794;9.722;2023-05-23T04:29:05;20.80;;;16.60;;
3995;SDS011;2012;49.794;9.722;2023-05-23T04:31:32;21.30;;;18.10;;
3995;SDS011;2012;49.794;9.722;2023-05-23T04:34:00;25.17;;;18.77;;
3995;SDS011;2012;49.794;9.722;2023-05-23T04:36:28;26.40;;;16.90;;
3995;SDS011;2012;49.794;9.722;2023-05-23T04:38:55;23.40;;;18.10;;
3995;SDS011;2012;49.794;9.722;2023-05-23T04:41:22;26.47;;;17.07;;
3995;SDS011;2012;49.794;9.722;2023-05-23T04:44:02;22.20;;;17.70;;
3995;SDS011;2012;49.794;9.722;2023-05-23T04:46:54;23.43;;;17.83;;
3995;SDS011;2012;49.794;9.722;2023-05-23T04:49:27;27.73;;;17.60;;
3995;SDS011;2012;49.794;9.722;2023-05-23T04:51:54;19.53;;;17.10;;
3995;SDS011;2012;49.794;9.722;2023-05-23T04:54:29;21.50;;;17.20;;
3995;SDS011;2012;49.794;9.722;2023-05-23T04:56:58;23.67;;;19.03;;
3995;SDS011;2012;49.794;9.722;2023-05-23T04:59:27;27.20;;;18.20;;
3995;SDS011;2012;49.794;9.722;2023-05-23T05:01:55;28.23;;;21.50;;
3995;SDS011;2012;49.794;9.722;2023-05-23T05:04:21;24.97;;;20.30;;
3995;SDS011;2012;49.794;9.722;2023-05-23T05:06:49;26.53;;;19.50;;
3995;SDS011;2012;49.794;9.722;2023-05-23T05:09:17;28.00;;;22.33;;
3995;SDS011;2012;49.794;9.722;2023-05-23T05:11:45;24.60;;;19.70;;
3995;SDS011;2012;49.794;9.722;2023-05-23T05:14:12;22.57;;;17.47;;
3995;SDS011;2012;49.794;9.722;2023-05-23T05:16:39;21.83;;;18.87;;
3995;SDS011;2012;49.794;9.722;2023-05-23T05:19:08;26.73;;;21.00;;
3995;SDS011;2012;49.794;9.722;2023-05-23T05:21:35;23.23;;;19.60;;
3995;SDS011;2012;49.794;9.722;2023-05-23T05:24:02;22.73;;;17.20;;
3995;SDS011;2012;49.794;9.722;2023-05-23T05:26:30;29.30;;;19.10;;
3995;SDS011;2012;49.794;9.722;2023-05-23T05:28:57;21.57;;;17.30;;
3995;SDS011;2012;49.794;9.722;2023-05-23T05:31:25;24.97;;;18.50;;
3995;SDS011;2012;49.794;9.722;2023-05-23T05:33:52;22.17;;;16.27;;
3995;SDS011;2012;49.794;9.722;2023-05-23T05:36:19;22.13;;;17.20;;
3995;SDS011;2012;49.794;9.722;2023-05-23T05:38:47;21.23;;;15.50;;
3995;SDS011;2012;49.794;9.722;2023-05-23T05:41:17;21.90;;;16.57;;
3995;SDS011;2012;49.794;9.722;2023-05-23T05:43:47;18.67;;;14.40;;
3995;SDS011;2012;49.794;9.722;2023-05-23T05:46:14;21.43;;;16.20;;
3995;SDS011;2012;49.794;9.722;2023-05-23T05:48:41;21.07;;;15.83;;
3995;SDS011;2012;49.794;9.722;2023-05-23T05:51:11;24.73;;;15.13;;
3995;SDS011;2012;49.794;9.722;2023-05-23T05:53:39;19.60;;;14.40;;
3995;SDS011;2012;49.794;9.722;2023-05-23T05:56:06;20.00;;;14.27;;
3995;SDS011;2012;49.794;9.722;2023-05-23T05:58:34;18.00;;;13.83;;
3995;SDS011;2012;49.794;9.722;2023-05-23T06:01:06;15.27;;;12.43;;
3995;SDS011;2012;49.794;9.722;2023-05-23T06:03:32;15.17;;;12.20;;
3995;SDS011;2012;49.794;9.722;2023-05-23T06:06:00;16.30;;;13.23;;
3995;SDS011;2012;49.794;9.722;2023-05-23T06:08:28;14.50;;;12.07;;
3995;SDS011;2012;49.794;9.722;2023-05-23T06:10:55;13.60;;;11.87;;
3995;SDS011;2012;49.794;9.722;2023-05-23T06:13:23;16.43;;;12.10;;
3995;SDS011;2012;49.794;9.722;2023-05-23T06:15:52;16.40;;;11.43;;
3995;SDS011;2012;49.794;9.722;2023-05-23T06:18:20;14.13;;;10.53;;
3995;SDS011;2012;49.794;9.722;2023-05-23T06:20:47;16.00;;;10.80;;
3995;SDS011;2012;49.794;9.722;2023-05-23T06:23:15;14.70;;;12.00;;
3995;SDS011;2012;49.794;9.722;2023-05-23T06:25:44;12.37;;;11.07;;
3995;SDS011;2012;49.794;9.722;2023-05-23T06:28:11;14.67;;;10.33;;
3995;SDS011;2012;49.794;9.722;2023-05-23T06:30:38;13.23;;;10.80;;
3995;SDS011;2012;49.794;9.722;2023-05-23T06:33:06;11.93;;;10.10;;
3995;SDS011;2012;49.794;9.722;2023-05-23T06:35:33;10.83;;;9.60;;
3995;SDS011;2012;49.794;9.722;2023-05-23T06:38:00;13.27;;;10.60;;
3995;SDS011;2012;49.794;9.722;2023-05-23T06:40:27;15.77;;;10.57;;
3995;SDS011;2012;49.794;9.722;2023-05-23T06:42:54;14.63;;;10.30;;
3995;SDS011;2012;49.794;9.722;2023-05-23T06:45:38;12.30;;;9.77;;
3995;SDS011;2012;49.794;9.722;2023-05-23T06:48:05;12.80;;;9.20;;
3995;SDS011;2012;49.794;9.722;2023-05-23T06:50:34;13.40;;;9.30;;
3995;SDS011;2012;49.794;9.722;2023-05-23T06:53:02;11.83;;;9.20;;
3995;SDS011;2012;49.794;9.722;2023-05-23T06:55:29;10.00;;;8.20;;
3995;SDS011;2012;49.794;9.722;2023-05-23T06:57:56;11.43;;;7.20;;
3995;SDS011;2012;49.794;9.722;2023-05-23T07:00:23;9.53;;;7.17;;
3995;SDS011;2012;49.794;9.722;2023-05-23T07:03:01;12.07;;;7.77;;
3995;SDS011;2012;49.794;9.722;2023-05-23T07:05:29;8.87;;;7.50;;
3995;SDS011;2012;49.794;9.722;2023-05-23T07:07:58;12.00;;;6.20;;
3995;SDS011;2012;49.794;9.722;2023-05-23T07:10:25;11.10;;;6.00;;
3995;SDS011;2012;49.794;9.722;2023-05-23T07:12:58;7.17;;;6.00;;
3995;SDS011;2012;49.794;9.722;2023-05-23T07:15:26;7.37;;;5.83;;
3995;SDS011;2012;49.794;9.722;2023-05-23T07:18:06;6.20;;;5.60;;
3995;SDS011;2012;49.794;9.722;2023-05-23T07:20:34;6.50;;;5.20;;
3995;SDS011;2012;49.794;9.722;2023-05-23T07:23:09;6.83;;;5.20;;
3995;SDS011;2012;49.794;9.722;2023-05-23T07:25:36;9.80;;;6.00;;
3995;SDS011;2012;49.794;9.722;2023-05-23T07:28:22;8.00;;;6.43;;
3995;SDS011;2012;49.794;9.722;2023-05-23T07:30:50;6.93;;;5.30;;
3995;SDS011;2012;49.794;9.722;2023-05-23T07:33:17;8.93;;;5.00;;
3995;SDS011;2012;49.794;9.722;2023-05-23T07:35:46;5.40;;;4.90;;
3995;SDS011;2012;49.794;9.722;2023-05-23T07:38:12;5.77;;;4.57;;
3995;SDS011;2012;49.794;9.722;2023-05-23T07:40:39;5.40;;;4.90;;
3995;SDS011;2012;49.794;9.722;2023-05-23T07:43:07;5.73;;;4.47;;
3995;SDS011;2012;49.794;9.722;2023-05-23T07:45:34;9.07;;;4.67;;
3995;SDS011;2012;49.794;9.722;2023-05-23T07:48:01;6.97;;;4.33;;
3995;SDS011;2012;49.794;9.722;2023-05-23T07:50:30;6.07;;;5.17;;
3995;SDS011;2012;49.794;9.722;2023-05-23T07:52:57;7.30;;;4.50;;
3995;SDS011;2012;49.794;9.722;2023-05-23T07:55:28;11.43;;;4.00;;
3995;SDS011;2012;49.794;9.722;2023-05-23T07:57:56;9.53;;;4.20;;
3995;SDS011;2012;49.794;9.722;2023-05-23T08:00:25;3.90;;;3.60;;
3995;SDS011;2012;49.794;9.722;2023-05-23T08:02:57;4.47;;;3.53;;
3995;SDS011;2012;49.794;9.722;2023-05-23T08:05:30;6.47;;;3.47;;
3995;SDS011;2012;49.794;9.722;2023-05-23T08:07:58;3.87;;;3.57;;
3995;SDS011;2012;49.794;9.722;2023-05-23T08:10:25;4.83;;;4.33;;
3995;SDS011;2012;49.794;9.722;2023-05-23T08:13:01;4.27;;;3.83;;
3995;SDS011;2012;49.794;9.722;2023-05-23T08:15:36;4.50;;;4.10;;
3995;SDS011;2012;49.794;9.722;2023-05-23T08:18:11;3.80;;;3.40;;
3995;SDS011;2012;49.794;9.722;2023-05-23T08:20:40;6.83;;;3.17;;
3995;SDS011;2012;49.794;9.722;2023-05-23T08:23:08;8.20;;;3.10;;
3995;SDS011;2012;49.794;9.722;2023-05-23T08:25:35;4.90;;;4.40;;
3995;SDS011;2012;49.794;9.722;2023-05-23T08:28:02;4.17;;;3.37;;
3995;SDS011;2012;49.794;9.722;2023-05-23T08:30:45;3.37;;;3.07;;
3995;SDS011;2012;49.794;9.722;2023-05-23T08:33:13;3.03;;;2.83;;
3995;SDS011;2012;49.794;9.722;2023-05-23T08:35:42;7.27;;;3.27;;
3995;SDS011;2012;49.794;9.722;2023-05-23T08:38:11;4.90;;;2.57;;
3995;SDS011;2012;49.794;9.722;2023-05-23T08:40:49;2.30;;;2.10;;
3995;SDS011;2012;49.794;9.722;2023-05-23T08:43:18;3.50;;;2.70;;
3995;SDS011;2012;49.794;9.722;2023-05-23T08:45:46;6.83;;;2.13;;
3995;SDS011;2012;49.794;9.722;2023-05-23T08:48:14;2.90;;;2.43;;
3995;SDS011;2012;49.794;9.722;2023-05-23T08:50:47;3.60;;;2.60;;
3995;SDS011;2012;49.794;9.722;2023-05-23T08:53:18;2.60;;;2.40;;
3995;SDS011;2012;49.794;9.722;2023-05-23T08:55:56;2.23;;;2.00;;
3995;SDS011;2012;49.794;9.722;2023-05-23T08:58:35;2.43;;;2.23;;
3995;SDS011;2012;49.794;9.722;2023-05-23T09:01:04;3.00;;;1.90;;
3995;SDS011;2012;49.794;9.722;2023-05-23T09:03:31;2.80;;;2.20;;
3995;SDS011;2012;49.794;9.722;2023-05-23T09:06:11;3.03;;;2.63;;
3995;SDS011;2012;49.794;9.722;2023-05-23T09:08:40;4.10;;;2.63;;
3995;SDS011;2012;49.794;9.722;2023-05-23T09:11:08;3.20;;;3.00;;
3995;SDS011;2012;49.794;9.722;2023-05-23T09:13:38;2.80;;;2.60;;
3995;SDS011;2012;49.794;9.722;2023-05-23T09:16:10;11.70;;;2.90;;
3995;SDS011;2012;49.794;9.722;2023-05-23T09:18:58;4.27;;;2.97;;
3995;SDS011;2012;49.794;9.722;2023-05-23T09:21:26;3.03;;;2.20;;
3995;SDS011;2012;49.794;9.722;2023-05-23T09:24:03;2.90;;;2.40;;
3995;SDS011;2012;49.794;9.722;2023-05-23T09:26:31;3.30;;;2.60;;
3995;SDS011;2012;49.794;9.722;2023-05-23T09:28:59;2.90;;;2.70;;
3995;SDS011;2012;49.794;9.722;2023-05-23T09:31:26;4.97;;;2.80;;
3995;SDS011;2012;49.794;9.722;2023-05-23T09:33:56;3.13;;;2.83;;
3995;SDS011;2012;49.794;9.722;2023-05-23T09:36:27;2.87;;;2.67;;
3995;SDS011;2012;49.794;9.722;2023-05-23T09:38:55;3.83;;;2.77;;
3995;SDS011;2012;49.794;9.722;2023-05-23T09:41:22;6.07;;;2.30;;
3995;SDS011;2012;49.794;9.722;2023-05-23T09:43:51;3.30;;;3.00;;
3995;SDS011;2012;49.794;9.722;2023-05-23T09:46:20;2.50;;;2.30;;
3995;SDS011;2012;49.794;9.722;2023-05-23T09:48:50;3.33;;;2.43;;
3995;SDS011;2012;49.794;9.722;2023-05-23T09:51:19;3.27;;;2.97;;
3995;SDS011;2012;49.794;9.722;2023-05-23T09:53:48;4.27;;;2.47;;
3995;SDS011;2012;49.794;9.722;2023-05-23T09:56:16;3.30;;;3.00;;
3995;SDS011;2012;49.794;9.722;2023-05-23T09:58:45;2.57;;;2.37;;
3995;SDS011;2012;49.794;9.722;2023-05-23T10:01:13;3.37;;;3.07;;
3995;SDS011;2012;49.794;9.722;2023-05-23T10:03:44;2.30;;;2.10;;
3995;SDS011;2012;49.794;9.722;2023-05-23T10:06:15;2.53;;;2.30;;
3995;SDS011;2012;49.794;9.722;2023-05-23T10:09:14;2.10;;;2.00;;
3995;SDS011;2012;49.794;9.722;2023-05-23T10:12:12;2.47;;;2.27;;
3995;SDS011;2012;49.794;9.722;2023-05-23T10:14:42;4.80;;;2.07;;
3995;SDS011;2012;49.794;9.722;2023-05-23T10:17:17;1.90;;;1.80;;
3995;SDS011;2012;49.794;9.722;2023-05-23T10:19:53;2.60;;;2.40;;
3995;SDS011;2012;49.794;9.722;2023-05-23T10:22:26;5.13;;;2.50;;
3995;SDS011;2012;49.794;9.722;2023-05-23T10:24:54;3.13;;;2.43;;
3995;SDS011;2012;49.794;9.722;2023-05-23T10:27:21;2.77;;;2.50;;
3995;SDS011;2012;49.794;9.722;2023-05-23T10:29:48;2.00;;;1.77;;
3995;SDS011;2012;49.794;9.722;2023-05-23T10:32:15;3.03;;;2.17;;
3995;SDS011;2012;49.794;9.722;2023-05-23T10:34:53;4.13;;;2.00;;
3995;SDS011;2012;49.794;9.722;2023-05-23T10:37:26;2.80;;;2.60;;
3995;SDS011;2012;49.794;9.722;2023-05-23T10:40:00;3.90;;;2.67;;
3995;SDS011;2012;49.794;9.722;2023-05-23T10:45:21;2.90;;;2.47;;
3995;SDS011;2012;49.794;9.722;2023-05-23T10:47:50;2.53;;;2.30;;
3995;SDS011;2012;49.794;9.722;2023-05-23T10:50:34;2.93;;;2.63;;
3995;SDS011;2012;49.794;9.722;2023-05-23T10:53:07;2.37;;;2.03;;
3995;SDS011;2012;49.794;9.722;2023-05-23T10:55:36;2.43;;;2.23;;
3995;SDS011;2012;49.794;9.722;2023-05-23T10:58:17;2.37;;;2.13;;
3995;SDS011;2012;49.794;9.722;2023-05-23T11:00:52;3.47;;;2.50;;
3995;SDS011;2012;49.794;9.722;2023-05-23T11:05:59;2.50;;;2.30;;
3995;SDS011;2012;49.794;9.722;2023-05-23T11:08:27;2.07;;;1.90;;
3995;SDS011;2012;49.794;9.722;2023-05-23T11:11:13;3.20;;;2.90;;
3995;SDS011;2012;49.794;9.722;2023-05-23T11:13:53;3.53;;;2.23;;
3995;SDS011;2012;49.794;9.722;2023-05-23T11:19:11;2.57;;;2.37;;
3995;SDS011;2012;49.794;9.722;2023-05-23T11:21:43;6.93;;;3.03;;
3995;SDS011;2012;49.794;9.722;2023-05-23T11:27:25;3.97;;;2.27;;
3995;SDS011;2012;49.794;9.722;2023-05-23T11:30:04;5.10;;;2.40;;
3995;SDS011;2012;49.794;9.722;2023-05-23T11:32:34;4.10;;;2.67;;
3995;SDS011;2012;49.794;9.722;2023-05-23T11:35:03;2.43;;;2.23;;
3995;SDS011;2012;49.794;9.722;2023-05-23T11:37:34;2.70;;;2.50;;
3995;SDS011;2012;49.794;9.722;2023-05-23T11:42:55;3.40;;;2.67;;
3995;SDS011;2012;49.794;9.722;2023-05-23T11:45:22;2.50;;;2.17;;
3995;SDS011;2012;49.794;9.722;2023-05-23T11:47:49;4.27;;;2.97;;
3995;SDS011;2012;49.794;9.722;2023-05-23T11:50:16;2.60;;;2.40;;
3995;SDS011;2012;49.794;9.722;2023-05-23T11:52:43;2.60;;;2.40;;
3995;SDS011;2012;49.794;9.722;2023-05-23T11:55:17;3.23;;;2.93;;
3995;SDS011;2012;49.794;9.722;2023-05-23T11:57:44;3.80;;;2.87;;
3995;SDS011;2012;49.794;9.722;2023-05-23T12:00:12;6.47;;;3.07;;
3995;SDS011;2012;49.794;9.722;2023-05-23T12:02:40;3.73;;;2.90;;
3995;SDS011;2012;49.794;9.722;2023-05-23T12:05:11;6.03;;;3.10;;
3995;SDS011;2012;49.794;9.722;2023-05-23T12:07:40;2.57;;;2.37;;
3995;SDS011;2012;49.794;9.722;2023-05-23T12:10:10;4.80;;;2.77;;
3995;SDS011;2012;49.794;9.722;2023-05-23T12:12:37;4.40;;;2.60;;
3995;SDS011;2012;49.794;9.722;2023-05-23T12:15:06;2.73;;;2.53;;
3995;SDS011;2012;49.794;9.722;2023-05-23T12:17:46;3.50;;;3.30;;
3995;SDS011;2012;49.794;9.722;2023-05-23T12:20:13;3.50;;;3.13;;
3995;SDS011;2012;49.794;9.722;2023-05-23T12:22:40;4.00;;;3.60;;
3995;SDS011;2012;49.794;9.722;2023-05-23T12:25:08;4.67;;;3.53;;
3995;SDS011;2012;49.794;9.722;2023-05-23T12:27:39;3.70;;;3.37;;
3995;SDS011;2012;49.794;9.722;2023-05-23T12:30:08;4.60;;;3.33;;
3995;SDS011;2012;49.794;9.722;2023-05-23T12:32:44;4.00;;;3.70;;
3995;SDS011;2012;49.794;9.722;2023-05-23T12:35:13;4.13;;;3.77;;
3995;SDS011;2012;49.794;9.722;2023-05-23T12:37:44;4.53;;;3.23;;
3995;SDS011;2012;49.794;9.722;2023-05-23T12:40:12;4.07;;;3.10;;
3995;SDS011;2012;49.794;9.722;2023-05-23T12:42:53;3.07;;;2.87;;
3995;SDS011;2012;49.794;9.722;2023-05-23T12:45:22;4.77;;;2.67;;
3995;SDS011;2012;49.794;9.722;2023-05-23T12:47:55;4.70;;;2.60;;
3995;SDS011;2012;49.794;9.722;2023-05-23T12:50:22;3.83;;;3.03;;
3995;SDS011;2012;49.794;9.722;2023-05-23T12:52:49;3.20;;;2.77;;
3995;SDS011;2012;49.794;9.722;2023-05-23T12:55:17;5.53;;;2.23;;
3995;SDS011;2012;49.794;9.722;2023-05-23T12:57:44;6.20;;;2.63;;
3995;SDS011;2012;49.794;9.722;2023-05-23T13:00:11;2.90;;;2.50;;
3995;SDS011;2012;49.794;9.722;2023-05-23T13:02:38;3.77;;;2.57;;
3995;SDS011;2012;49.794;9.722;2023-05-23T13:05:05;3.63;;;2.30;;
3995;SDS011;2012;49.794;9.722;2023-05-23T13:07:33;2.40;;;2.20;;
3995;SDS011;2012;49.794;9.722;2023-05-23T13:10:00;6.00;;;2.40;;
3995;SDS011;2012;49.794;9.722;2023-05-23T13:12:27;2.87;;;2.50;;
3995;SDS011;2012;49.794;9.722;2023-05-23T13:14:54;2.80;;;2.30;;
3995;SDS011;2012;49.794;9.722;2023-05-23T13:17:23;2.47;;;2.27;;
3995;SDS011;2012;49.794;9.722;2023-05-23T13:19:50;3.50;;;2.67;;
3995;SDS011;2012;49.794;9.722;2023-05-23T13:22:16;3.67;;;2.13;;
3995;SDS011;2012;49.794;9.722;2023-05-23T13:24:43;2.93;;;2.63;;
3995;SDS011;2012;49.794;9.722;2023-05-23T13:27:11;5.47;;;2.33;;
3995;SDS011;2012;49.794;9.722;2023-05-23T13:29:38;2.43;;;2.17;;
3995;SDS011;2012;49.794;9.722;2023-05-23T13:32:05;3.70;;;2.30;;
3995;SDS011;2012;49.794;9.722;2023-05-23T13:34:32;2.33;;;2.17;;
3995;SDS011;2012;49.794;9.722;2023-05-23T13:37:02;3.10;;;1.80;;
3995;SDS011;2012;49.794;9.722;2023-05-23T13:39:30;5.07;;;1.80;;
3995;SDS011;2012;49.794;9.722;2023-05-23T13:41:56;4.67;;;2.23;;
3995;SDS011;2012;49.794;9.722;2023-05-23T13:44:23;2.17;;;1.70;;
3995;SDS011;2012;49.794;9.722;2023-05-23T13:46:50;2.13;;;1.50;;
3995;SDS011;2012;49.794;9.722;2023-05-23T13:49:17;1.40;;;1.30;;
3995;SDS011;2012;49.794;9.722;2023-05-23T13:51:44;8.40;;;1.90;;
3995;SDS011;2012;49.794;9.722;2023-05-23T13:54:11;5.83;;;1.53;;
3995;SDS011;2012;49.794;9.722;2023-05-23T13:56:39;2.03;;;1.90;;
3995;SDS011;2012;49.794;9.722;2023-05-23T13:59:06;6.50;;;1.33;;
3995;SDS011;2012;49.794;9.722;2023-05-23T14:01:32;5.27;;;1.60;;
3995;SDS011;2012;49.794;9.722;2023-05-23T14:03:59;2.40;;;1.57;;
3995;SDS011;2012;49.794;9.722;2023-05-23T14:06:26;1.40;;;1.30;;
3995;SDS011;2012;49.794;9.722;2023-05-23T14:08:53;2.97;;;1.60;;
3995;SDS011;2012;49.794;9.722;2023-05-23T14:11:21;1.10;;;1.00;;
3995;SDS011;2012;49.794;9.722;2023-05-23T14:13:48;2.07;;;1.77;;
3995;SDS011;2012;49.794;9.722;2023-05-23T14:16:15;2.43;;;1.70;;
3995;SDS011;2012;49.794;9.722;2023-05-23T14:18:41;1.50;;;1.33;;
3995;SDS011;2012;49.794;9.722;2023-05-23T14:21:08;4.20;;;1.50;;
3995;SDS011;2012;49.794;9.722;2023-05-23T14:23:35;1.70;;;1.47;;
3995;SDS011;2012;49.794;9.722;2023-05-23T14:26:02;1.60;;;1.50;;
3995;SDS011;2012;49.794;9.722;2023-05-23T14:28:30;1.40;;;1.30;;
3995;SDS011;2012;49.794;9.722;2023-05-23T14:30:58;2.17;;;1.20;;
3995;SDS011;2012;49.794;9.722;2023-05-23T14:33:25;1.43;;;1.13;;
3995;SDS011;2012;49.794;9.722;2023-05-23T14:35:51;1.47;;;1.30;;
3995;SDS011;2012;49.794;9.722;2023-05-23T14:38:18;1.40;;;1.20;;
3995;SDS011;2012;49.794;9.722;2023-05-23T14:40:45;1.40;;;1.30;;
3995;SDS011;2012;49.794;9.722;2023-05-23T14:43:14;1.40;;;1.30;;
3995;SDS011;2012;49.794;9.722;2023-05-23T14:45:41;1.43;;;1.33;;
3995;SDS011;2012;49.794;9.722;2023-05-23T14:48:08;1.40;;;1.30;;
3995;SDS011;2012;49.794;9.722;2023-05-23T14:50:36;1.77;;;1.60;;
3995;SDS011;2012;49.794;9.722;2023-05-23T14:53:02;3.60;;;1.63;;
3995;SDS011;2012;49.794;9.722;2023-05-23T14:55:30;3.20;;;1.30;;
3995;SDS011;2012;49.794;9.722;2023-05-23T14:57:56;1.93;;;1.53;;
3995;SDS011;2012;49.794;9.722;2023-05-23T15:00:23;4.20;;;1.40;;
3995;SDS011;2012;49.794;9.722;2023-05-23T15:02:50;3.07;;;1.50;;
3995;SDS011;2012;49.794;9.722;2023-05-23T15:05:18;1.87;;;1.40;;
3995;SDS011;2012;49.794;9.722;2023-05-23T15:07:45;1.70;;;1.23;;
3995;SDS011;2012;49.794;9.722;2023-05-23T15:10:12;1.60;;;1.50;;
3995;SDS011;2012;49.794;9.722;2023-05-23T15:12:39;1.23;;;1.13;;
3995;SDS011;2012;49.794;9.722;2023-05-23T15:15:06;2.33;;;1.33;;
3995;SDS011;2012;49.794;9.722;2023-05-23T15:17:34;1.50;;;1.40;;
3995;SDS011;2012;49.794;9.722;2023-05-23T15:20:01;3.23;;;1.47;;
3995;SDS011;2012;49.794;9.722;2023-05-23T15:22:32;1.30;;;1.10;;
3995;SDS011;2012;49.794;9.722;2023-05-23T15:25:06;1.70;;;1.17;;
3995;SDS011;2012;49.794;9.722;2023-05-23T15:27:33;1.53;;;1.30;;
3995;SDS011;2012;49.794;9.722;2023-05-23T15:30:00;2.60;;;1.17;;
3995;SDS011;2012;49.794;9.722;2023-05-23T15:32:28;3.50;;;1.30;;